sensor_id;sensor_type;location;lat;lon;timestamp;P1;durP1;ratioP1;P2;durP2;ratioP2
19566;SDS011;9930;49.240;8.548;2022-07-23T00:00:22;6.88;;;6.35;;
19566;SDS011;9930;49.240;8.548;2022-07-23T00:02:57;6.32;;;5.72;;
19566;SDS011;9930;49.240;8.548;2022-07-23T00:05:25;5.93;;;5.43;;
19566;SDS011;9930;49.240;8.548;2022-07-23T00:07:51;6.03;;;5.63;;
19566;SDS011;9930;49.240;8.548;2022-07-23T00:10:17;6.32;;;5.93;;
19566;SDS011;9930;49.240;8.548;2022-07-23T00:12:43;6.25;;;5.82;;
19566;SDS011;9930;49.240;8.548;2022-07-23T00:15:09;6.20;;;5.72;;
19566;SDS011;9930;49.240;8.548;2022-07-23T00:17:38;5.70;;;5.30;;
19566;SDS011;9930;49.240;8.548;2022-07-23T00:20:06;6.40;;;5.90;;
19566;SDS011;9930;49.240;8.548;2022-07-23T00:22:51;6.32;;;5.82;;
19566;SDS011;9930;49.240;8.548;2022-07-23T00:25:23;6.85;;;6.25;;
19566;SDS011;9930;49.240;8.548;2022-07-23T00:27:52;6.65;;;6.15;;
19566;SDS011;9930;49.240;8.548;2022-07-23T00:30:18;6.85;;;6.30;;
19566;SDS011;9930;49.240;8.548;2022-07-23T00:32:53;6.45;;;5.95;;
19566;SDS011;9930;49.240;8.548;2022-07-23T00:35:26;7.20;;;6.68;;
19566;SDS011;9930;49.240;8.548;2022-07-23T00:37:56;7.18;;;6.57;;
19566;SDS011;9930;49.240;8.548;2022-07-23T00:40:23;7.25;;;6.65;;
19566;SDS011;9930;49.240;8.548;2022-07-23T00:42:56;8.75;;;6.65;;
19566;SDS011;9930;49.240;8.548;2022-07-23T00:45:24;7.20;;;6.60;;
19566;SDS011;9930;49.240;8.548;2022-07-23T00:47:51;6.53;;;5.93;;
19566;SDS011;9930;49.240;8.548;2022-07-23T00:50:21;6.57;;;5.97;;
19566;SDS011;9930;49.240;8.548;2022-07-23T00:52:50;6.20;;;5.80;;
19566;SDS011;9930;49.240;8.548;2022-07-23T00:55:19;6.18;;;5.68;;
19566;SDS011;9930;49.240;8.548;2022-07-23T00:57:48;6.82;;;6.32;;
19566;SDS011;9930;49.240;8.548;2022-07-23T01:00:16;6.70;;;6.10;;
19566;SDS011;9930;49.240;8.548;2022-07-23T01:02:42;6.20;;;5.80;;
19566;SDS011;9930;49.240;8.548;2022-07-23T01:05:09;6.32;;;5.72;;
19566;SDS011;9930;49.240;8.548;2022-07-23T01:07:37;6.22;;;5.72;;
19566;SDS011;9930;49.240;8.548;2022-07-23T01:10:06;6.35;;;5.78;;
19566;SDS011;9930;49.240;8.548;2022-07-23T01:12:53;6.15;;;5.47;;
19566;SDS011;9930;49.240;8.548;2022-07-23T01:15:37;7.95;;;5.32;;
19566;SDS011;9930;49.240;8.548;2022-07-23T01:18:07;5.53;;;5.13;;
19566;SDS011;9930;49.240;8.548;2022-07-23T01:20:36;5.95;;;5.35;;
19566;SDS011;9930;49.240;8.548;2022-07-23T01:23:02;5.63;;;5.22;;
19566;SDS011;9930;49.240;8.548;2022-07-23T01:25:28;5.13;;;4.72;;
19566;SDS011;9930;49.240;8.548;2022-07-23T01:27:53;5.60;;;5.20;;
19566;SDS011;9930;49.240;8.548;2022-07-23T01:30:22;4.90;;;4.40;;
19566;SDS011;9930;49.240;8.548;2022-07-23T01:32:48;4.90;;;4.50;;
19566;SDS011;9930;49.240;8.548;2022-07-23T01:35:19;5.00;;;4.60;;
19566;SDS011;9930;49.240;8.548;2022-07-23T01:37:47;4.97;;;4.57;;
19566;SDS011;9930;49.240;8.548;2022-07-23T01:40:13;5.03;;;4.63;;
19566;SDS011;9930;49.240;8.548;2022-07-23T01:42:39;4.57;;;4.28;;
19566;SDS011;9930;49.240;8.548;2022-07-23T01:45:06;5.47;;;4.32;;
19566;SDS011;9930;49.240;8.548;2022-07-23T01:47:35;5.03;;;4.53;;
19566;SDS011;9930;49.240;8.548;2022-07-23T01:50:00;5.00;;;4.60;;
19566;SDS011;9930;49.240;8.548;2022-07-23T01:52:26;5.30;;;4.90;;
19566;SDS011;9930;49.240;8.548;2022-07-23T01:54:57;4.70;;;4.32;;
19566;SDS011;9930;49.240;8.548;2022-07-23T01:57:22;5.13;;;4.63;;
19566;SDS011;9930;49.240;8.548;2022-07-23T01:59:51;5.43;;;4.85;;
19566;SDS011;9930;49.240;8.548;2022-07-23T02:02:17;5.40;;;4.90;;
19566;SDS011;9930;49.240;8.548;2022-07-23T02:04:45;5.93;;;5.03;;
19566;SDS011;9930;49.240;8.548;2022-07-23T02:07:11;5.55;;;5.05;;
19566;SDS011;9930;49.240;8.548;2022-07-23T02:09:39;4.78;;;4.45;;
19566;SDS011;9930;49.240;8.548;2022-07-23T02:12:05;5.15;;;4.75;;
19566;SDS011;9930;49.240;8.548;2022-07-23T02:14:36;5.00;;;4.53;;
19566;SDS011;9930;49.240;8.548;2022-07-23T02:17:01;4.90;;;4.50;;
19566;SDS011;9930;49.240;8.548;2022-07-23T02:19:34;5.10;;;4.70;;
19566;SDS011;9930;49.240;8.548;2022-07-23T02:22:00;5.07;;;4.68;;
19566;SDS011;9930;49.240;8.548;2022-07-23T02:24:28;5.80;;;4.90;;
19566;SDS011;9930;49.240;8.548;2022-07-23T02:26:54;5.55;;;5.05;;
19566;SDS011;9930;49.240;8.548;2022-07-23T02:29:22;6.30;;;4.45;;
19566;SDS011;9930;49.240;8.548;2022-07-23T02:31:48;5.10;;;4.70;;
19566;SDS011;9930;49.240;8.548;2022-07-23T02:34:14;5.20;;;4.80;;
19566;SDS011;9930;49.240;8.548;2022-07-23T02:36:42;5.13;;;4.72;;
19566;SDS011;9930;49.240;8.548;2022-07-23T02:39:08;5.50;;;5.03;;
19566;SDS011;9930;49.240;8.548;2022-07-23T02:41:36;4.97;;;4.57;;
19566;SDS011;9930;49.240;8.548;2022-07-23T02:44:06;5.40;;;4.65;;
19566;SDS011;9930;49.240;8.548;2022-07-23T02:46:32;4.88;;;4.47;;
19566;SDS011;9930;49.240;8.548;2022-07-23T02:48:57;4.93;;;4.50;;
19566;SDS011;9930;49.240;8.548;2022-07-23T02:51:28;5.05;;;4.55;;
19566;SDS011;9930;49.240;8.548;2022-07-23T02:53:56;4.80;;;4.40;;
19566;SDS011;9930;49.240;8.548;2022-07-23T02:56:22;4.68;;;4.28;;
19566;SDS011;9930;49.240;8.548;2022-07-23T02:58:49;5.10;;;4.70;;
19566;SDS011;9930;49.240;8.548;2022-07-23T03:01:17;5.20;;;4.80;;
19566;SDS011;9930;49.240;8.548;2022-07-23T03:03:43;4.90;;;4.60;;
19566;SDS011;9930;49.240;8.548;2022-07-23T03:06:13;4.90;;;4.50;;
19566;SDS011;9930;49.240;8.548;2022-07-23T03:08:41;5.20;;;4.80;;
19566;SDS011;9930;49.240;8.548;2022-07-23T03:11:08;5.10;;;4.70;;
19566;SDS011;9930;49.240;8.548;2022-07-23T03:13:36;5.05;;;4.63;;
19566;SDS011;9930;49.240;8.548;2022-07-23T03:16:03;4.75;;;4.40;;
19566;SDS011;9930;49.240;8.548;2022-07-23T03:18:32;5.13;;;4.72;;
19566;SDS011;9930;49.240;8.548;2022-07-23T03:20:58;5.40;;;5.00;;
19566;SDS011;9930;49.240;8.548;2022-07-23T03:23:24;4.45;;;4.15;;
19566;SDS011;9930;49.240;8.548;2022-07-23T03:25:50;5.00;;;4.60;;
19566;SDS011;9930;49.240;8.548;2022-07-23T03:28:20;5.30;;;4.85;;
19566;SDS011;9930;49.240;8.548;2022-07-23T03:30:50;5.22;;;4.82;;
19566;SDS011;9930;49.240;8.548;2022-07-23T03:33:18;5.43;;;4.88;;
19566;SDS011;9930;49.240;8.548;2022-07-23T03:35:45;5.78;;;4.97;;
19566;SDS011;9930;49.240;8.548;2022-07-23T03:38:12;5.50;;;5.05;;
19566;SDS011;9930;49.240;8.548;2022-07-23T03:40:39;5.35;;;4.95;;
19566;SDS011;9930;49.240;8.548;2022-07-23T03:43:05;5.38;;;4.97;;
19566;SDS011;9930;49.240;8.548;2022-07-23T03:45:34;5.32;;;4.93;;
19566;SDS011;9930;49.240;8.548;2022-07-23T03:48:01;4.80;;;4.40;;
19566;SDS011;9930;49.240;8.548;2022-07-23T03:50:30;5.82;;;5.20;;
19566;SDS011;9930;49.240;8.548;2022-07-23T03:52:55;5.30;;;4.90;;
19566;SDS011;9930;49.240;8.548;2022-07-23T03:55:21;5.20;;;4.80;;
19566;SDS011;9930;49.240;8.548;2022-07-23T03:57:50;5.88;;;5.43;;
19566;SDS011;9930;49.240;8.548;2022-07-23T04:00:15;5.70;;;5.20;;
19566;SDS011;9930;49.240;8.548;2022-07-23T04:02:41;5.70;;;5.30;;
19566;SDS011;9930;49.240;8.548;2022-07-23T04:05:09;5.38;;;4.88;;
19566;SDS011;9930;49.240;8.548;2022-07-23T04:07:37;5.38;;;4.97;;
19566;SDS011;9930;49.240;8.548;2022-07-23T04:10:06;5.60;;;5.20;;
19566;SDS011;9930;49.240;8.548;2022-07-23T04:12:32;5.70;;;5.10;;
19566;SDS011;9930;49.240;8.548;2022-07-23T04:14:58;5.55;;;5.15;;
19566;SDS011;9930;49.240;8.548;2022-07-23T04:17:24;5.82;;;5.25;;
19566;SDS011;9930;49.240;8.548;2022-07-23T04:19:50;5.90;;;5.40;;
19566;SDS011;9930;49.240;8.548;2022-07-23T04:22:17;5.90;;;5.40;;
19566;SDS011;9930;49.240;8.548;2022-07-23T04:24:43;5.70;;;5.20;;
19566;SDS011;9930;49.240;8.548;2022-07-23T04:27:09;6.10;;;5.53;;
19566;SDS011;9930;49.240;8.548;2022-07-23T04:29:35;5.22;;;4.82;;
19566;SDS011;9930;49.240;8.548;2022-07-23T04:32:00;6.32;;;5.47;;
19566;SDS011;9930;49.240;8.548;2022-07-23T04:34:26;6.03;;;5.63;;
19566;SDS011;9930;49.240;8.548;2022-07-23T04:36:55;6.38;;;5.82;;
19566;SDS011;9930;49.240;8.548;2022-07-23T04:39:21;6.82;;;6.10;;
19566;SDS011;9930;49.240;8.548;2022-07-23T04:41:52;5.95;;;5.35;;
19566;SDS011;9930;49.240;8.548;2022-07-23T04:44:18;6.05;;;5.55;;
19566;SDS011;9930;49.240;8.548;2022-07-23T04:46:49;6.50;;;6.00;;
19566;SDS011;9930;49.240;8.548;2022-07-23T04:49:18;6.18;;;5.68;;
19566;SDS011;9930;49.240;8.548;2022-07-23T04:51:44;6.50;;;5.90;;
19566;SDS011;9930;49.240;8.548;2022-07-23T04:54:12;6.65;;;6.15;;
19566;SDS011;9930;49.240;8.548;2022-07-23T04:56:40;6.18;;;5.68;;
19566;SDS011;9930;49.240;8.548;2022-07-23T04:59:05;5.95;;;5.55;;
19566;SDS011;9930;49.240;8.548;2022-07-23T05:01:31;11.60;;;6.30;;
19566;SDS011;9930;49.240;8.548;2022-07-23T05:03:59;6.93;;;6.32;;
19566;SDS011;9930;49.240;8.548;2022-07-23T05:06:25;6.35;;;5.82;;
19566;SDS011;9930;49.240;8.548;2022-07-23T05:08:51;6.07;;;5.57;;
19566;SDS011;9930;49.240;8.548;2022-07-23T05:11:17;6.63;;;6.00;;
19566;SDS011;9930;49.240;8.548;2022-07-23T05:13:45;6.70;;;6.00;;
19566;SDS011;9930;49.240;8.548;2022-07-23T05:16:13;6.35;;;5.85;;
19566;SDS011;9930;49.240;8.548;2022-07-23T05:18:43;6.43;;;5.82;;
19566;SDS011;9930;49.240;8.548;2022-07-23T05:21:11;6.45;;;5.95;;
19566;SDS011;9930;49.240;8.548;2022-07-23T05:23:37;6.75;;;6.15;;
19566;SDS011;9930;49.240;8.548;2022-07-23T05:26:02;6.78;;;6.28;;
19566;SDS011;9930;49.240;8.548;2022-07-23T05:28:28;6.72;;;6.13;;
19566;SDS011;9930;49.240;8.548;2022-07-23T05:30:54;6.78;;;6.28;;
19566;SDS011;9930;49.240;8.548;2022-07-23T05:33:20;6.07;;;5.57;;
19566;SDS011;9930;49.240;8.548;2022-07-23T05:35:50;6.70;;;6.20;;
19566;SDS011;9930;49.240;8.548;2022-07-23T05:38:17;6.50;;;6.00;;
19566;SDS011;9930;49.240;8.548;2022-07-23T05:40:42;6.88;;;6.28;;
19566;SDS011;9930;49.240;8.548;2022-07-23T05:43:08;7.15;;;6.55;;
19566;SDS011;9930;49.240;8.548;2022-07-23T05:45:36;6.60;;;6.00;;
19566;SDS011;9930;49.240;8.548;2022-07-23T05:48:02;6.85;;;6.30;;
19566;SDS011;9930;49.240;8.548;2022-07-23T05:50:28;7.40;;;6.80;;
19566;SDS011;9930;49.240;8.548;2022-07-23T05:52:56;6.55;;;5.95;;
19566;SDS011;9930;49.240;8.548;2022-07-23T05:55:24;6.75;;;6.15;;
19566;SDS011;9930;49.240;8.548;2022-07-23T05:57:50;6.20;;;5.70;;
19566;SDS011;9930;49.240;8.548;2022-07-23T06:00:20;6.30;;;5.70;;
19566;SDS011;9930;49.240;8.548;2022-07-23T06:02:49;7.18;;;6.60;;
19566;SDS011;9930;49.240;8.548;2022-07-23T06:05:16;6.82;;;6.32;;
19566;SDS011;9930;49.240;8.548;2022-07-23T06:07:44;6.78;;;6.18;;
19566;SDS011;9930;49.240;8.548;2022-07-23T06:10:10;6.80;;;6.20;;
19566;SDS011;9930;49.240;8.548;2022-07-23T06:12:35;5.97;;;5.57;;
19566;SDS011;9930;49.240;8.548;2022-07-23T06:15:04;6.38;;;5.85;;
19566;SDS011;9930;49.240;8.548;2022-07-23T06:17:31;6.35;;;5.85;;
19566;SDS011;9930;49.240;8.548;2022-07-23T06:19:57;5.97;;;5.57;;
19566;SDS011;9930;49.240;8.548;2022-07-23T06:22:25;6.63;;;6.05;;
19566;SDS011;9930;49.240;8.548;2022-07-23T06:24:51;6.82;;;6.15;;
19566;SDS011;9930;49.240;8.548;2022-07-23T06:27:26;6.18;;;5.68;;
19566;SDS011;9930;49.240;8.548;2022-07-23T06:29:52;6.22;;;5.72;;
19566;SDS011;9930;49.240;8.548;2022-07-23T06:32:22;6.90;;;6.40;;
19566;SDS011;9930;49.240;8.548;2022-07-23T06:34:49;7.07;;;6.47;;
19566;SDS011;9930;49.240;8.548;2022-07-23T06:37:19;6.70;;;6.20;;
19566;SDS011;9930;49.240;8.548;2022-07-23T06:39:45;6.57;;;6.07;;
19566;SDS011;9930;49.240;8.548;2022-07-23T06:42:11;6.88;;;6.28;;
19566;SDS011;9930;49.240;8.548;2022-07-23T06:44:37;6.70;;;6.20;;
19566;SDS011;9930;49.240;8.548;2022-07-23T06:47:10;6.82;;;6.32;;
19566;SDS011;9930;49.240;8.548;2022-07-23T06:49:36;7.03;;;6.43;;
19566;SDS011;9930;49.240;8.548;2022-07-23T06:52:05;6.95;;;6.35;;
19566;SDS011;9930;49.240;8.548;2022-07-23T06:54:33;6.47;;;5.97;;
19566;SDS011;9930;49.240;8.548;2022-07-23T06:56:59;6.47;;;5.97;;
19566;SDS011;9930;49.240;8.548;2022-07-23T06:59:28;7.10;;;6.40;;
19566;SDS011;9930;49.240;8.548;2022-07-23T07:01:54;6.47;;;5.97;;
19566;SDS011;9930;49.240;8.548;2022-07-23T07:04:23;6.57;;;6.07;;
19566;SDS011;9930;49.240;8.548;2022-07-23T07:06:49;6.60;;;6.07;;
19566;SDS011;9930;49.240;8.548;2022-07-23T07:09:15;6.60;;;6.00;;
19566;SDS011;9930;49.240;8.548;2022-07-23T07:11:41;6.50;;;6.00;;
19566;SDS011;9930;49.240;8.548;2022-07-23T07:14:07;7.70;;;7.10;;
19566;SDS011;9930;49.240;8.548;2022-07-23T07:16:32;6.00;;;5.50;;
19566;SDS011;9930;49.240;8.548;2022-07-23T07:19:03;6.30;;;5.80;;
19566;SDS011;9930;49.240;8.548;2022-07-23T07:21:28;6.00;;;5.60;;
19566;SDS011;9930;49.240;8.548;2022-07-23T07:23:57;6.40;;;5.80;;
19566;SDS011;9930;49.240;8.548;2022-07-23T07:26:23;6.50;;;5.90;;
19566;SDS011;9930;49.240;8.548;2022-07-23T07:28:49;6.80;;;6.32;;
19566;SDS011;9930;49.240;8.548;2022-07-23T07:31:17;7.00;;;6.40;;
19566;SDS011;9930;49.240;8.548;2022-07-23T07:33:46;6.25;;;5.75;;
19566;SDS011;9930;49.240;8.548;2022-07-23T07:36:11;6.38;;;5.88;;
19566;SDS011;9930;49.240;8.548;2022-07-23T07:38:40;6.22;;;5.75;;
19566;SDS011;9930;49.240;8.548;2022-07-23T07:41:08;5.90;;;5.50;;
19566;SDS011;9930;49.240;8.548;2022-07-23T07:43:35;5.97;;;5.47;;
19566;SDS011;9930;49.240;8.548;2022-07-23T07:46:02;5.75;;;5.25;;
19566;SDS011;9930;49.240;8.548;2022-07-23T07:48:29;6.25;;;5.75;;
19566;SDS011;9930;49.240;8.548;2022-07-23T07:50:55;6.65;;;6.15;;
19566;SDS011;9930;49.240;8.548;2022-07-23T07:53:21;6.82;;;6.32;;
19566;SDS011;9930;49.240;8.548;2022-07-23T07:55:51;6.70;;;6.10;;
19566;SDS011;9930;49.240;8.548;2022-07-23T07:58:19;7.22;;;6.63;;
19566;SDS011;9930;49.240;8.548;2022-07-23T08:00:54;6.90;;;6.40;;
19566;SDS011;9930;49.240;8.548;2022-07-23T08:03:25;6.80;;;6.30;;
19566;SDS011;9930;49.240;8.548;2022-07-23T08:05:54;7.22;;;6.63;;
19566;SDS011;9930;49.240;8.548;2022-07-23T08:08:24;6.78;;;6.28;;
19566;SDS011;9930;49.240;8.548;2022-07-23T08:10:50;7.65;;;7.05;;
19566;SDS011;9930;49.240;8.548;2022-07-23T08:13:24;7.78;;;7.07;;
19566;SDS011;9930;49.240;8.548;2022-07-23T08:15:53;7.63;;;6.93;;
19566;SDS011;9930;49.240;8.548;2022-07-23T08:18:20;6.63;;;6.05;;
19566;SDS011;9930;49.240;8.548;2022-07-23T08:20:49;7.18;;;6.57;;
19566;SDS011;9930;49.240;8.548;2022-07-23T08:23:15;7.55;;;6.85;;
19566;SDS011;9930;49.240;8.548;2022-07-23T08:25:45;6.93;;;6.32;;
19566;SDS011;9930;49.240;8.548;2022-07-23T08:28:12;7.82;;;7.22;;
19566;SDS011;9930;49.240;8.548;2022-07-23T08:30:39;7.85;;;7.25;;
19566;SDS011;9930;49.240;8.548;2022-07-23T08:33:13;6.95;;;6.45;;
19566;SDS011;9930;49.240;8.548;2022-07-23T08:35:44;7.18;;;6.57;;
19566;SDS011;9930;49.240;8.548;2022-07-23T08:38:13;7.63;;;6.93;;
19566;SDS011;9930;49.240;8.548;2022-07-23T08:40:45;7.07;;;6.47;;
19566;SDS011;9930;49.240;8.548;2022-07-23T08:43:18;7.70;;;7.10;;
19566;SDS011;9930;49.240;8.548;2022-07-23T08:45:50;7.38;;;6.80;;
19566;SDS011;9930;49.240;8.548;2022-07-23T08:48:23;8.60;;;7.85;;
19566;SDS011;9930;49.240;8.548;2022-07-23T08:50:55;6.75;;;6.25;;
19566;SDS011;9930;49.240;8.548;2022-07-23T08:53:28;8.27;;;7.57;;
19566;SDS011;9930;49.240;8.548;2022-07-23T08:55:56;8.13;;;7.45;;
19566;SDS011;9930;49.240;8.548;2022-07-23T08:58:26;8.02;;;7.43;;
19566;SDS011;9930;49.240;8.548;2022-07-23T09:00:55;7.85;;;7.15;;
19566;SDS011;9930;49.240;8.548;2022-07-23T09:03:28;8.00;;;7.40;;
19566;SDS011;9930;49.240;8.548;2022-07-23T09:06:03;8.60;;;7.90;;
19566;SDS011;9930;49.240;8.548;2022-07-23T09:11:01;7.95;;;7.30;;
19566;SDS011;9930;49.240;8.548;2022-07-23T09:21:16;7.57;;;6.97;;
19566;SDS011;9930;49.240;8.548;2022-07-23T09:23:47;8.40;;;7.70;;
19566;SDS011;9930;49.240;8.548;2022-07-23T09:26:32;7.85;;;7.25;;
19566;SDS011;9930;49.240;8.548;2022-07-23T09:29:05;8.65;;;7.95;;
19566;SDS011;9930;49.240;8.548;2022-07-23T09:31:50;8.23;;;7.53;;
19566;SDS011;9930;49.240;8.548;2022-07-23T09:34:34;8.68;;;7.97;;
19566;SDS011;9930;49.240;8.548;2022-07-23T09:39:38;8.55;;;7.80;;
19566;SDS011;9930;49.240;8.548;2022-07-23T09:44:45;7.28;;;6.68;;
19566;SDS011;9930;49.240;8.548;2022-07-23T09:47:20;8.30;;;7.60;;
19566;SDS011;9930;49.240;8.548;2022-07-23T09:49:59;9.02;;;8.32;;
19566;SDS011;9930;49.240;8.548;2022-07-23T09:52:34;8.18;;;7.50;;
19566;SDS011;9930;49.240;8.548;2022-07-23T09:55:14;7.25;;;6.65;;
19566;SDS011;9930;49.240;8.548;2022-07-23T09:57:43;7.40;;;6.80;;
19566;SDS011;9930;49.240;8.548;2022-07-23T10:00:10;7.85;;;7.32;;
19566;SDS011;9930;49.240;8.548;2022-07-23T10:02:38;8.15;;;7.53;;
19566;SDS011;9930;49.240;8.548;2022-07-23T10:05:04;7.22;;;6.63;;
19566;SDS011;9930;49.240;8.548;2022-07-23T10:07:33;8.60;;;7.90;;
19566;SDS011;9930;49.240;8.548;2022-07-23T10:10:03;8.55;;;7.85;;
19566;SDS011;9930;49.240;8.548;2022-07-23T10:12:35;7.10;;;6.60;;
19566;SDS011;9930;49.240;8.548;2022-07-23T10:15:02;7.82;;;7.22;;
19566;SDS011;9930;49.240;8.548;2022-07-23T10:17:31;7.45;;;6.85;;
19566;SDS011;9930;49.240;8.548;2022-07-23T10:19:57;7.70;;;7.07;;
19566;SDS011;9930;49.240;8.548;2022-07-23T10:22:27;7.72;;;7.13;;
19566;SDS011;9930;49.240;8.548;2022-07-23T10:31:10;8.98;;;8.27;;
19566;SDS011;9930;49.240;8.548;2022-07-23T10:37:28;6.63;;;6.13;;
19566;SDS011;9930;49.240;8.548;2022-07-23T10:42:42;7.13;;;6.55;;
19566;SDS011;9930;49.240;8.548;2022-07-23T10:45:23;7.07;;;6.57;;
19566;SDS011;9930;49.240;8.548;2022-07-23T11:02:37;6.57;;;5.93;;
19566;SDS011;9930;49.240;8.548;2022-07-23T11:05:07;6.30;;;5.80;;
19566;SDS011;9930;49.240;8.548;2022-07-23T11:07:37;6.32;;;5.82;;
19566;SDS011;9930;49.240;8.548;2022-07-23T11:10:35;6.50;;;6.00;;
19566;SDS011;9930;49.240;8.548;2022-07-23T11:29:40;6.55;;;6.05;;
19566;SDS011;9930;49.240;8.548;2022-07-23T11:34:44;6.43;;;5.93;;
19566;SDS011;9930;49.240;8.548;2022-07-23T11:37:30;6.55;;;6.05;;
19566;SDS011;9930;49.240;8.548;2022-07-23T11:40:05;6.40;;;5.90;;
19566;SDS011;9930;49.240;8.548;2022-07-23T11:42:38;6.38;;;5.90;;
19566;SDS011;9930;49.240;8.548;2022-07-23T11:45:18;6.15;;;5.72;;
19566;SDS011;9930;49.240;8.548;2022-07-23T11:47:43;7.28;;;6.68;;
19566;SDS011;9930;49.240;8.548;2022-07-23T11:50:09;6.95;;;6.40;;
19566;SDS011;9930;49.240;8.548;2022-07-23T11:52:39;7.13;;;6.63;;
19566;SDS011;9930;49.240;8.548;2022-07-23T11:55:06;6.63;;;6.18;;
19566;SDS011;9930;49.240;8.548;2022-07-23T11:57:37;6.57;;;6.05;;
19566;SDS011;9930;49.240;8.548;2022-07-23T12:00:15;6.75;;;6.15;;
19566;SDS011;9930;49.240;8.548;2022-07-23T12:02:46;6.50;;;6.03;;
19566;SDS011;9930;49.240;8.548;2022-07-23T12:05:16;6.78;;;6.28;;
19566;SDS011;9930;49.240;8.548;2022-07-23T12:07:53;6.43;;;5.95;;
19566;SDS011;9930;49.240;8.548;2022-07-23T12:10:29;6.60;;;6.10;;
19566;SDS011;9930;49.240;8.548;2022-07-23T12:13:02;6.20;;;5.78;;
19566;SDS011;9930;49.240;8.548;2022-07-23T12:15:33;6.15;;;5.72;;
19566;SDS011;9930;49.240;8.548;2022-07-23T12:18:05;6.05;;;5.60;;
19566;SDS011;9930;49.240;8.548;2022-07-23T12:20:35;5.53;;;5.13;;
19566;SDS011;9930;49.240;8.548;2022-07-23T12:23:05;6.07;;;5.68;;
19566;SDS011;9930;49.240;8.548;2022-07-23T12:25:34;5.85;;;5.45;;
19566;SDS011;9930;49.240;8.548;2022-07-23T12:33:06;5.40;;;5.00;;
19566;SDS011;9930;49.240;8.548;2022-07-23T12:35:36;5.85;;;5.45;;
19566;SDS011;9930;49.240;8.548;2022-07-23T12:38:14;5.82;;;5.43;;
19566;SDS011;9930;49.240;8.548;2022-07-23T12:40:52;5.75;;;5.30;;
19566;SDS011;9930;49.240;8.548;2022-07-23T12:43:25;6.15;;;5.75;;
19566;SDS011;9930;49.240;8.548;2022-07-23T12:48:49;5.97;;;5.47;;
19566;SDS011;9930;49.240;8.548;2022-07-23T12:51:25;5.97;;;5.47;;
19566;SDS011;9930;49.240;8.548;2022-07-23T12:54:03;5.80;;;5.30;;
19566;SDS011;9930;49.240;8.548;2022-07-23T12:56:31;5.85;;;5.35;;
19566;SDS011;9930;49.240;8.548;2022-07-23T13:01:38;6.00;;;5.60;;
19566;SDS011;9930;49.240;8.548;2022-07-23T13:04:13;5.80;;;5.40;;
19566;SDS011;9930;49.240;8.548;2022-07-23T13:06:45;5.75;;;5.35;;
19566;SDS011;9930;49.240;8.548;2022-07-23T13:09:18;5.90;;;5.50;;
19566;SDS011;9930;49.240;8.548;2022-07-23T13:11:52;5.90;;;5.47;;
19566;SDS011;9930;49.240;8.548;2022-07-23T13:14:23;6.10;;;5.70;;
19566;SDS011;9930;49.240;8.548;2022-07-23T13:16:53;5.57;;;5.18;;
19566;SDS011;9930;49.240;8.548;2022-07-23T13:19:25;6.20;;;5.80;;
19566;SDS011;9930;49.240;8.548;2022-07-23T13:21:52;6.28;;;5.78;;
19566;SDS011;9930;49.240;8.548;2022-07-23T13:24:21;6.32;;;5.88;;
19566;SDS011;9930;49.240;8.548;2022-07-23T13:26:51;6.10;;;5.60;;
19566;SDS011;9930;49.240;8.548;2022-07-23T13:29:18;6.18;;;5.70;;
19566;SDS011;9930;49.240;8.548;2022-07-23T13:31:48;6.65;;;6.15;;
19566;SDS011;9930;49.240;8.548;2022-07-23T13:34:14;6.15;;;5.75;;
19566;SDS011;9930;49.240;8.548;2022-07-23T13:36:42;6.28;;;5.88;;
19566;SDS011;9930;49.240;8.548;2022-07-23T13:39:10;6.38;;;5.90;;
19566;SDS011;9930;49.240;8.548;2022-07-23T13:41:37;6.68;;;6.10;;
19566;SDS011;9930;49.240;8.548;2022-07-23T13:44:03;5.88;;;5.47;;
19566;SDS011;9930;49.240;8.548;2022-07-23T13:46:32;6.03;;;5.63;;
19566;SDS011;9930;49.240;8.548;2022-07-23T13:48:58;6.53;;;6.13;;
19566;SDS011;9930;49.240;8.548;2022-07-23T13:51:28;6.15;;;5.75;;
19566;SDS011;9930;49.240;8.548;2022-07-23T13:53:54;6.35;;;5.95;;
19566;SDS011;9930;49.240;8.548;2022-07-23T13:56:29;5.30;;;4.95;;
19566;SDS011;9930;49.240;8.548;2022-07-23T13:58:55;5.72;;;5.32;;
19566;SDS011;9930;49.240;8.548;2022-07-23T14:01:21;6.30;;;5.80;;
19566;SDS011;9930;49.240;8.548;2022-07-23T14:03:48;6.40;;;5.88;;
19566;SDS011;9930;49.240;8.548;2022-07-23T14:06:13;5.85;;;5.45;;
19566;SDS011;9930;49.240;8.548;2022-07-23T14:08:39;6.22;;;5.72;;
19566;SDS011;9930;49.240;8.548;2022-07-23T14:11:05;6.50;;;6.00;;
19566;SDS011;9930;49.240;8.548;2022-07-23T14:13:30;6.35;;;5.85;;
19566;SDS011;9930;49.240;8.548;2022-07-23T14:15:56;6.47;;;5.97;;
19566;SDS011;9930;49.240;8.548;2022-07-23T14:18:24;6.38;;;5.88;;
19566;SDS011;9930;49.240;8.548;2022-07-23T14:20:50;6.05;;;5.65;;
19566;SDS011;9930;49.240;8.548;2022-07-23T14:23:21;6.65;;;6.15;;
19566;SDS011;9930;49.240;8.548;2022-07-23T14:25:47;6.28;;;5.78;;
19566;SDS011;9930;49.240;8.548;2022-07-23T14:28:15;6.20;;;5.70;;
19566;SDS011;9930;49.240;8.548;2022-07-23T14:30:43;6.38;;;5.88;;
19566;SDS011;9930;49.240;8.548;2022-07-23T14:33:09;6.20;;;5.70;;
19566;SDS011;9930;49.240;8.548;2022-07-23T14:35:37;6.07;;;5.57;;
19566;SDS011;9930;49.240;8.548;2022-07-23T14:38:04;6.38;;;5.88;;
19566;SDS011;9930;49.240;8.548;2022-07-23T14:40:29;6.22;;;5.72;;
19566;SDS011;9930;49.240;8.548;2022-07-23T14:42:55;7.00;;;6.50;;
19566;SDS011;9930;49.240;8.548;2022-07-23T14:45:21;6.15;;;5.70;;
19566;SDS011;9930;49.240;8.548;2022-07-23T14:47:49;6.28;;;5.88;;
19566;SDS011;9930;49.240;8.548;2022-07-23T14:50:15;6.88;;;6.38;;
19566;SDS011;9930;49.240;8.548;2022-07-23T14:52:42;6.53;;;5.93;;
19566;SDS011;9930;49.240;8.548;2022-07-23T14:55:08;6.32;;;5.93;;
19566;SDS011;9930;49.240;8.548;2022-07-23T14:57:34;6.30;;;5.88;;
19566;SDS011;9930;49.240;8.548;2022-07-23T15:00:06;6.18;;;5.68;;
19566;SDS011;9930;49.240;8.548;2022-07-23T15:02:32;6.20;;;5.80;;
19566;SDS011;9930;49.240;8.548;2022-07-23T15:05:03;6.43;;;5.93;;
19566;SDS011;9930;49.240;8.548;2022-07-23T15:07:34;6.03;;;5.63;;
19566;SDS011;9930;49.240;8.548;2022-07-23T15:10:00;6.78;;;6.18;;
19566;SDS011;9930;49.240;8.548;2022-07-23T15:12:26;6.32;;;5.85;;
19566;SDS011;9930;49.240;8.548;2022-07-23T15:14:55;6.13;;;5.53;;
19566;SDS011;9930;49.240;8.548;2022-07-23T15:17:26;6.00;;;5.50;;
19566;SDS011;9930;49.240;8.548;2022-07-23T15:19:52;6.35;;;5.88;;
19566;SDS011;9930;49.240;8.548;2022-07-23T15:22:28;6.18;;;5.68;;
19566;SDS011;9930;49.240;8.548;2022-07-23T15:24:56;6.30;;;5.80;;
19566;SDS011;9930;49.240;8.548;2022-07-23T15:27:22;5.97;;;5.57;;
19566;SDS011;9930;49.240;8.548;2022-07-23T15:29:51;6.03;;;5.60;;
19566;SDS011;9930;49.240;8.548;2022-07-23T15:32:16;6.13;;;5.65;;
19566;SDS011;9930;49.240;8.548;2022-07-23T15:34:45;5.78;;;5.38;;
19566;SDS011;9930;49.240;8.548;2022-07-23T15:37:10;5.50;;;5.10;;
19566;SDS011;9930;49.240;8.548;2022-07-23T15:39:38;6.07;;;5.57;;
19566;SDS011;9930;49.240;8.548;2022-07-23T15:42:04;6.28;;;5.78;;
19566;SDS011;9930;49.240;8.548;2022-07-23T15:44:30;5.88;;;5.43;;
19566;SDS011;9930;49.240;8.548;2022-07-23T15:46:56;6.30;;;5.80;;
19566;SDS011;9930;49.240;8.548;2022-07-23T15:49:23;6.05;;;5.65;;
19566;SDS011;9930;49.240;8.548;2022-07-23T15:51:55;6.05;;;5.65;;
19566;SDS011;9930;49.240;8.548;2022-07-23T15:54:21;6.55;;;5.97;;
19566;SDS011;9930;49.240;8.548;2022-07-23T15:56:51;5.75;;;5.35;;
19566;SDS011;9930;49.240;8.548;2022-07-23T15:59:21;5.95;;;5.55;;
19566;SDS011;9930;49.240;8.548;2022-07-23T16:01:50;5.90;;;5.50;;
19566;SDS011;9930;49.240;8.548;2022-07-23T16:04:16;6.28;;;5.78;;
19566;SDS011;9930;49.240;8.548;2022-07-23T16:06:44;6.00;;;5.50;;
19566;SDS011;9930;49.240;8.548;2022-07-23T16:09:09;6.10;;;5.70;;
19566;SDS011;9930;49.240;8.548;2022-07-23T16:11:35;6.40;;;6.00;;
19566;SDS011;9930;49.240;8.548;2022-07-23T16:14:01;5.90;;;5.50;;
19566;SDS011;9930;49.240;8.548;2022-07-23T16:16:27;7.72;;;7.18;;
19566;SDS011;9930;49.240;8.548;2022-07-23T16:18:54;6.55;;;6.05;;
19566;SDS011;9930;49.240;8.548;2022-07-23T16:21:20;6.38;;;5.88;;